Aurora, New Mexico
Current Conditions -  °F | °C
As of 9:53 PM on Saturday 25 Oct 2014 (Local Time) from KLVS Reporting Station
Clear Clear  
Wind Chill: 54°   Ceiling: Unl
Heat Index: 54°   Visibility: 10mi
Dew Point: 26°   Wind: 12mph
Humidity: 34%   Direction: 220°SW
Pressure: 30.23"   Gusts: NA
Location:  36.0243°N, 105.005°W
Report Text: KLVS 260353Z AUTO 22010KT 10SM CLR 12/M03 A3023 RMK AO2 SLP143 T01221033
Loading
Personal Weather Stations






























Interactive Weather Map New forecast layout! Learn more

10-Day Weather Forecast

Advertisements
Track Severe Weather on mobile